Terminal Aerodrome Forecast
Issued by NWS

Home | Current Version | Previous Version | Text Only | Print | Product List | Glossary On
Versions: 1 2 3 4 5 6 7 8 9 10 11 12 13 14 15 16 17 18 19 20 21 22 23 24 25 26 27
858
FTUS43 KLOT 262339
TAFMDW
TAF
KMDW 262339Z 2700/2724 09005KT P6SM FEW060
     FM270300 23002KT P6SM SKC
     FM271900 10006KT P6SM FEW050 SCT200=

USA.gov is the U.S. government's official web portal to all federal, state and local government web resources and services.